Time;durP1;ratioP1;P1;durP2;ratioP2;P2;SDS_P1;SDS_P2;PMS_P1;PMS_P2;Temp;Humidity;BMP_temperature;BMP_pressure;BME280_temperature;BME280_humidity;BME280_pressure;Samples;Min_cycle;Max_cycle;Signal;HPM_P1;HPM_P2
2022/11/16 00:00:17;;;;;;;59.43;34.33;;;;;;;6.64;100.00;94204.28;5070624;28;20204;-60
2022/11/16 00:02:42;;;;;;;67.57;35.57;;;;;;;6.64;100.00;94206.81;5070526;28;20201;-59
2022/11/16 00:05:08;;;;;;;67.60;38.33;;;;;;;6.72;100.00;94202.78;5070305;28;20771;-59
2022/11/16 00:07:34;;;;;;;73.73;37.47;;;;;;;7.05;100.00;94256.69;5070399;28;20185;-63
2022/11/16 00:09:59;;;;;;;70.33;38.73;;;;;;;6.88;100.00;94236.94;5070526;28;20592;-60
2022/11/16 00:12:25;;;;;;;76.20;40.97;;;;;;;6.70;100.00;94214.72;5070428;28;20686;-59
2022/11/16 00:14:50;;;;;;;80.40;42.67;;;;;;;6.81;100.00;94220.69;5052445;28;20278;-62
2022/11/16 00:17:16;;;;;;;84.53;45.17;;;;;;;6.87;100.00;94285.88;5070345;28;20197;-60
2022/11/16 00:19:41;;;;;;;85.87;46.30;;;;;;;6.57;100.00;94271.31;5070328;28;20216;-59
2022/11/16 00:22:10;;;;;;;95.50;51.10;;;;;;;6.53;100.00;94263.16;5052352;28;20192;-60
2022/11/16 00:24:35;;;;;;;96.13;50.77;;;;;;;6.37;100.00;94267.75;5070606;28;20307;-61
2022/11/16 00:27:01;;;;;;;101.00;51.60;;;;;;;6.02;100.00;94211.53;5070241;28;20272;-63
2022/11/16 00:29:26;;;;;;;83.67;45.10;;;;;;;5.99;100.00;94200.88;5070463;28;20227;-59
2022/11/16 00:31:53;;;;;;;83.73;46.73;;;;;;;6.22;100.00;94246.16;5073511;28;20217;-60
2022/11/16 00:34:18;;;;;;;84.20;45.07;;;;;;;6.06;100.00;94217.94;5073976;28;20220;-58
2022/11/16 00:36:44;;;;;;;87.03;44.07;;;;;;;6.23;100.00;94224.28;5073778;28;20246;-61
2022/11/16 00:39:11;;;;;;;83.03;44.27;;;;;;;6.08;100.00;94215.34;5055626;28;20667;-60
2022/11/16 00:41:37;;;;;;;73.30;42.70;;;;;;;6.10;100.00;94203.41;5073708;28;20204;-62
2022/11/16 00:44:02;;;;;;;77.70;43.73;;;;;;;6.00;100.00;94210.06;5073516;28;20216;-62
2022/11/16 00:46:28;;;;;;;70.30;41.13;;;;;;;6.12;100.00;94241.94;5073467;28;20650;-61
2022/11/16 00:48:53;;;;;;;65.17;38.30;;;;;;;6.06;100.00;94224.72;5073569;28;20184;-62
2022/11/16 00:51:19;;;;;;;68.90;40.17;;;;;;;5.90;100.00;94214.94;5073566;28;20196;-63
2022/11/16 00:53:44;;;;;;;70.43;39.13;;;;;;;5.64;100.00;94166.41;5073468;28;20681;-61
2022/11/16 00:56:09;;;;;;;73.07;40.63;;;;;;;5.53;100.00;94161.38;5073484;28;20192;-60
2022/11/16 00:58:35;;;;;;;79.40;41.60;;;;;;;5.43;100.00;94167.19;5073505;28;20194;-63
2022/11/16 01:01:07;;;;;;;73.00;38.97;;;;;;;5.69;100.00;94166.09;5073276;28;20215;-61
2022/11/16 01:03:34;;;;;;;69.63;38.17;;;;;;;5.58;100.00;94155.97;5073302;28;20211;-61
2022/11/16 01:06:08;;;;;;;75.37;39.50;;;;;;;5.93;100.00;94171.84;5073130;28;20311;-62
2022/11/16 01:08:35;;;;;;;74.17;39.90;;;;;;;5.83;100.00;94164.19;5073552;28;20194;-61
2022/11/16 01:13:46;;;;;;;74.83;38.83;;;;;;;5.99;100.00;94161.31;5073282;28;20296;-63
2022/11/16 01:16:16;;;;;;;74.00;37.20;;;;;;;6.09;100.00;94169.81;5073179;28;20196;-59
2022/11/16 01:18:42;;;;;;;76.90;35.53;;;;;;;6.01;100.00;94148.56;5073272;28;20196;-62
2022/11/16 01:21:08;;;;;;;65.03;35.47;;;;;;;6.16;100.00;94158.31;5072766;28;20207;-62
2022/11/16 01:23:33;;;;;;;66.27;35.17;;;;;;;5.97;100.00;94127.84;5054962;28;20196;-61
2022/11/16 01:26:02;;;;;;;64.23;34.20;;;;;;;6.00;100.00;94130.13;5054800;28;20223;-62
2022/11/16 01:28:28;;;;;;;61.83;34.67;;;;;;;5.70;100.00;94130.66;5072950;28;20200;-62
2022/11/16 01:30:54;;;;;;;61.87;34.60;;;;;;;5.81;100.00;94133.19;5072848;28;20224;-58
2022/11/16 01:33:20;;;;;;;68.13;35.80;;;;;;;5.97;100.00;94142.97;5072866;28;20307;-60
2022/11/16 01:35:45;;;;;;;66.67;34.40;;;;;;;6.29;100.00;94184.25;5072634;28;20220;-62
2022/11/16 01:38:11;;;;;;;68.23;36.30;;;;;;;6.18;100.00;94204.41;5072783;28;20559;-60
2022/11/16 01:40:37;;;;;;;72.07;37.10;;;;;;;5.92;100.00;94182.84;5072169;28;20212;-60
2022/11/16 01:43:19;;;;;;;69.10;37.17;;;;;;;5.69;100.00;94149.25;5072325;28;20207;-60
2022/11/16 01:45:45;;;;;;;73.50;37.17;;;;;;;5.76;100.00;94162.19;5054914;28;20620;-58
2022/11/16 01:48:15;;;;;;;71.57;37.47;;;;;;;5.61;100.00;94140.63;5072680;28;20195;-59
2022/11/16 01:50:41;;;;;;;66.13;34.93;;;;;;;5.86;100.00;94156.38;5072471;28;20225;-62
2022/11/16 01:53:09;;;;;;;70.53;36.17;;;;;;;5.70;100.00;94142.47;5072341;28;20619;-62
2022/11/16 01:55:35;;;;;;;70.60;34.97;;;;;;;5.68;100.00;94132.50;5072321;28;20211;-62
2022/11/16 01:58:01;;;;;;;67.47;34.23;;;;;;;5.85;100.00;94146.41;5072436;28;20678;-62
2022/11/16 02:00:27;;;;;;;68.10;33.70;;;;;;;5.73;100.00;94144.78;5072500;28;20727;-60
2022/11/16 02:02:53;;;;;;;70.53;35.67;;;;;;;5.71;100.00;94131.47;5072147;28;20727;-58
2022/11/16 02:05:27;;;;;;;77.83;38.50;;;;;;;5.63;100.00;94123.69;5072222;28;20239;-60
2022/11/16 02:11:19;;;;;;;65.57;35.07;;;;;;;5.69;100.00;94135.81;5072236;28;20219;-59
2022/11/16 02:13:57;;;;;;;82.80;35.27;;;;;;;5.63;100.00;94124.47;5072063;28;20259;-63
2022/11/16 02:16:51;;;;;;;74.67;34.87;;;;;;;5.41;100.00;94106.00;5054233;28;20298;-60
2022/11/16 02:19:35;;;;;;;76.63;35.67;;;;;;;5.12;100.00;94098.06;5072493;28;20243;-60
2022/11/16 02:22:35;;;;;;;94.93;37.93;;;;;;;4.83;100.00;94100.13;5071920;28;20219;-59
2022/11/16 02:25:46;;;;;;;75.67;35.83;;;;;;;4.77;100.00;94099.75;5054152;28;20222;-62
2022/11/16 02:28:53;;;;;;;84.17;35.87;;;;;;;4.86;100.00;94116.75;5051758;28;20208;-61
2022/11/16 02:31:25;;;;;;;68.73;36.70;;;;;;;4.94;100.00;94102.72;5027237;28;20257;-61
2022/11/16 02:33:53;;;;;;;154.13;39.53;;;;;;;4.89;100.00;94102.22;5054495;28;20206;-62
2022/11/16 02:36:22;;;;;;;86.10;38.23;;;;;;;4.94;100.00;94099.38;5071860;28;20191;-62
2022/11/16 02:39:06;;;;;;;90.67;36.67;;;;;;;4.98;100.00;94105.81;5071972;28;20629;-62
2022/11/16 02:41:35;;;;;;;74.73;36.43;;;;;;;5.03;100.00;94109.59;5071667;28;20196;-62
2022/11/16 02:44:11;;;;;;;69.33;32.93;;;;;;;5.05;100.00;94106.94;5071579;28;20207;-62
2022/11/16 02:46:40;;;;;;;90.63;37.30;;;;;;;5.11;100.00;94098.94;5071626;28;20195;-62
2022/11/16 02:49:13;;;;;;;79.03;35.60;;;;;;;5.30;100.00;94100.94;5071770;28;20211;-61
2022/11/16 02:51:40;;;;;;;70.70;35.50;;;;;;;5.33;100.00;94101.53;5071559;28;20196;-60
2022/11/16 02:54:11;;;;;;;62.00;33.37;;;;;;;5.42;100.00;94105.06;5070659;28;20203;-61
2022/11/16 02:57:03;;;;;;;71.53;33.40;;;;;;;5.54;100.00;94110.03;5071393;28;20239;-61
2022/11/16 02:59:45;;;;;;;82.73;37.17;;;;;;;5.47;100.00;94095.47;5071480;28;20207;-60
2022/11/16 03:02:33;;;;;;;68.07;33.90;;;;;;;5.37;100.00;94089.50;5071389;28;20658;-60
2022/11/16 03:05:04;;;;;;;107.73;37.20;;;;;;;5.30;100.00;94099.22;5072050;28;20565;-63
2022/11/16 03:07:37;;;;;;;75.50;34.17;;;;;;;5.36;100.00;94095.44;5071568;28;20193;-64
2022/11/16 03:10:03;;;;;;;82.03;35.13;;;;;;;5.32;100.00;94084.81;5071484;28;20697;-62
2022/11/16 03:12:33;;;;;;;108.33;36.13;;;;;;;5.23;100.00;94079.66;5053065;28;20212;-62
2022/11/16 03:15:04;;;;;;;92.47;35.37;;;;;;;5.00;100.00;94066.19;5071174;28;20205;-60
2022/11/16 03:17:37;;;;;;;84.30;31.30;;;;;;;5.34;100.00;94084.69;5071192;28;20652;-62
2022/11/16 03:20:12;;;;;;;61.57;30.50;;;;;;;5.07;100.00;94067.34;5071010;28;20275;-62
2022/11/16 03:22:41;;;;;;;72.47;32.47;;;;;;;5.13;100.00;94075.25;5070928;28;20193;-62
2022/11/16 03:25:10;;;;;;;58.10;32.67;;;;;;;5.19;100.00;94085.81;5071333;28;20239;-60
2022/11/16 03:27:45;;;;;;;93.63;31.83;;;;;;;5.13;100.00;94078.72;5053001;28;20241;-59
2022/11/16 03:30:20;;;;;;;86.33;31.80;;;;;;;5.12;100.00;94082.94;5071108;28;20223;-64
2022/11/16 03:33:15;;;;;;;111.07;30.87;;;;;;;5.10;100.00;94070.47;5052756;28;20226;-63
2022/11/16 03:35:45;;;;;;;91.00;28.07;;;;;;;5.15;100.00;94072.66;5066640;28;20261;-61
2022/11/16 03:38:13;;;;;;;130.47;30.63;;;;;;;5.01;100.00;94076.16;5071000;28;20192;-59
2022/11/16 03:40:40;;;;;;;61.17;28.80;;;;;;;5.01;100.00;94068.59;5070883;28;20236;-60
2022/11/16 03:43:07;;;;;;;64.37;31.27;;;;;;;5.10;100.00;94075.50;5070975;28;20208;-63
2022/11/16 03:45:34;;;;;;;64.00;28.80;;;;;;;5.13;100.00;94078.72;5070907;28;20243;-59
2022/11/16 03:48:00;;;;;;;60.37;27.57;;;;;;;5.35;100.00;94083.78;5070900;28;20574;-62
2022/11/16 03:50:25;;;;;;;72.20;29.90;;;;;;;5.26;100.00;94072.66;5070711;28;20305;-59
2022/11/16 03:52:50;;;;;;;64.10;29.10;;;;;;;5.48;100.00;94080.22;5070800;28;20292;-62
2022/11/16 03:55:16;;;;;;;96.90;29.83;;;;;;;5.53;100.00;94080.72;5070692;28;20219;-60
2022/11/16 03:57:41;;;;;;;95.90;30.20;;;;;;;5.47;100.00;94083.69;5070678;28;20191;-59
2022/11/16 04:00:08;;;;;;;98.57;29.97;;;;;;;5.26;100.00;94066.81;5070633;28;20216;-63
2022/11/16 04:02:34;;;;;;;71.27;30.07;;;;;;;5.29;100.00;94061.56;5070507;28;20258;-62
2022/11/16 04:24:24;;;;;;;58.03;28.27;;;;;;;5.05;100.00;94036.44;5077078;28;20241;-62
2022/11/16 04:29:40;;;;;;;52.50;27.03;;;;;;;5.01;100.00;94042.59;5077165;28;20272;-62
2022/11/16 04:37:51;;;;;;;52.57;26.73;;;;;;;5.41;100.00;94043.81;5077279;28;20783;-60
2022/11/16 04:40:22;;;;;;;57.33;27.90;;;;;;;5.33;100.00;94032.69;5077121;28;20236;-62
2022/11/16 04:43:13;;;;;;;59.67;28.90;;;;;;;5.20;100.00;94039.53;5085095;22;20177;-62
2022/11/16 04:48:23;;;;;;;61.33;27.33;;;;;;;5.54;100.00;94036.94;5077398;28;20229;-63
2022/11/16 04:50:48;;;;;;;66.03;29.10;;;;;;;5.42;100.00;94042.06;5076514;28;20204;-62
2022/11/16 04:53:14;;;;;;;60.17;29.10;;;;;;;5.22;100.00;94036.00;5076616;28;20202;-59
2022/11/16 04:55:39;;;;;;;59.07;27.83;;;;;;;5.29;100.00;94034.66;5076680;28;20245;-62
2022/11/16 04:58:05;;;;;;;56.83;27.30;;;;;;;5.21;100.00;94026.88;5076984;28;20184;-62
2022/11/16 05:00:31;;;;;;;49.23;27.20;;;;;;;5.35;100.00;94026.63;5076444;28;20216;-62
2022/11/16 05:02:56;;;;;;;50.50;26.10;;;;;;;5.53;100.00;94032.00;5076919;28;20184;-61
2022/11/16 05:05:22;;;;;;;48.13;26.33;;;;;;;5.58;100.00;94028.22;5076443;28;20215;-61
2022/11/16 05:07:47;;;;;;;54.67;27.10;;;;;;;5.38;100.00;94026.41;5076774;28;20586;-61
2022/11/16 05:10:13;;;;;;;54.50;27.97;;;;;;;5.31;100.00;94024.44;5076322;28;20216;-62
2022/11/16 05:12:39;;;;;;;59.97;30.13;;;;;;;5.48;100.00;94027.31;5076539;28;20609;-64
2022/11/16 05:15:06;;;;;;;54.70;29.00;;;;;;;5.36;100.00;94023.19;5076280;28;20215;-58
2022/11/16 05:17:32;;;;;;;54.60;26.60;;;;;;;5.53;100.00;94026.97;5072346;28;20189;-60
2022/11/16 05:22:58;;;;;;;52.63;28.13;;;;;;;5.51;100.00;94017.00;4972351;28;20192;-61
2022/11/16 05:25:25;;;;;;;54.70;28.47;;;;;;;5.56;100.00;94016.63;5051660;28;20337;-61
2022/11/16 05:27:53;;;;;;;58.93;30.40;;;;;;;5.64;100.00;94020.19;5054846;28;20324;-60
2022/11/16 05:30:18;;;;;;;51.27;28.00;;;;;;;5.57;100.00;94013.22;5073210;28;20209;-63
2022/11/16 05:32:44;;;;;;;49.73;26.53;;;;;;;5.64;100.00;94016.88;5072979;28;20231;-60
2022/11/16 05:35:10;;;;;;;55.53;27.90;;;;;;;5.97;100.00;94034.50;5072800;28;20262;-60
2022/11/16 05:37:35;;;;;;;53.37;28.47;;;;;;;5.84;100.00;94028.78;5072770;28;20244;-61
2022/11/16 05:40:01;;;;;;;59.67;29.10;;;;;;;5.79;100.00;94026.59;5072724;28;20212;-60
2022/11/16 05:42:26;;;;;;;52.13;26.63;;;;;;;5.89;100.00;94035.09;5072693;28;20669;-61
2022/11/16 05:44:51;;;;;;;54.50;27.80;;;;;;;5.79;100.00;94028.31;5072690;28;20209;-62
2022/11/16 05:47:17;;;;;;;56.53;28.60;;;;;;;5.72;100.00;94017.88;5054506;28;20224;-62
2022/11/16 05:49:42;;;;;;;55.03;28.07;;;;;;;5.92;100.00;94016.38;5072638;28;20208;-61
2022/11/16 05:52:08;;;;;;;57.20;27.93;;;;;;;5.87;100.00;94023.53;5072655;28;20243;-62
2022/11/16 05:54:33;;;;;;;67.20;29.57;;;;;;;6.21;100.00;94042.72;5072292;28;20208;-61
2022/11/16 05:56:59;;;;;;;57.13;29.33;;;;;;;6.05;100.00;94029.69;5072628;28;20247;-61
2022/11/16 05:59:24;;;;;;;61.90;30.00;;;;;;;6.47;100.00;94020.47;5072119;28;20250;-62
2022/11/16 06:01:50;;;;;;;61.67;29.70;;;;;;;6.56;100.00;94038.25;5072345;28;20268;-60
2022/11/16 06:04:16;;;;;;;55.60;28.10;;;;;;;6.41;100.00;94056.28;5072228;28;20220;-59
2022/11/16 06:06:41;;;;;;;58.27;29.43;;;;;;;6.21;100.00;94052.00;5072195;28;20230;-61
2022/11/16 06:09:09;;;;;;;52.50;26.60;;;;;;;5.96;100.00;94037.94;5072131;28;20632;-62
2022/11/16 06:11:36;;;;;;;60.37;31.10;;;;;;;5.85;100.00;94035.44;5072248;28;20187;-58
2022/11/16 06:14:02;;;;;;;63.77;31.93;;;;;;;5.70;100.00;94024.78;5071864;28;20224;-61
2022/11/16 06:16:28;;;;;;;56.43;29.27;;;;;;;5.62;100.00;94029.59;5072140;28;20234;-60
2022/11/16 06:18:53;;;;;;;55.47;28.57;;;;;;;6.00;100.00;94036.78;5072107;28;20670;-62
2022/11/16 06:21:19;;;;;;;57.30;29.60;;;;;;;5.93;100.00;94041.50;5072195;28;20188;-63
2022/11/16 06:23:45;;;;;;;58.93;29.70;;;;;;;5.76;100.00;94028.53;5072053;28;20188;-63
2022/11/16 06:26:11;;;;;;;59.97;28.50;;;;;;;5.79;100.00;94033.34;5072060;28;20189;-63
2022/11/16 06:28:37;;;;;;;64.40;30.73;;;;;;;6.02;100.00;94039.97;5052748;28;20202;-62
2022/11/16 06:31:03;;;;;;;58.60;29.17;;;;;;;5.93;100.00;94035.66;5072047;28;20200;-60
2022/11/16 06:33:28;;;;;;;56.23;26.83;;;;;;;5.84;100.00;94024.56;5072349;28;20215;-63
2022/11/16 06:35:54;;;;;;;56.17;28.13;;;;;;;6.11;100.00;94041.00;5071873;28;20281;-60
2022/11/16 06:38:19;;;;;;;49.47;27.30;;;;;;;5.88;100.00;94036.00;5072196;28;20279;-61
2022/11/16 06:40:53;;;;;;;47.97;24.53;;;;;;;6.06;100.00;94040.56;5071703;28;20210;-59
2022/11/16 06:43:20;;;;;;;42.17;24.27;;;;;;;6.21;100.00;94050.28;5071895;28;20651;-61
2022/11/16 06:45:50;;;;;;;46.83;25.57;;;;;;;6.04;100.00;94030.56;5071587;28;20693;-61
2022/11/16 06:48:17;;;;;;;41.70;24.30;;;;;;;6.22;100.00;94053.59;5053698;28;20200;-63
2022/11/16 06:50:42;;;;;;;44.37;24.33;;;;;;;6.14;100.00;94043.31;5071376;28;20208;-61
2022/11/16 06:53:08;;;;;;;41.63;24.20;;;;;;;6.02;100.00;94017.28;5071246;28;20226;-62
2022/11/16 06:55:33;;;;;;;44.20;23.70;;;;;;;6.06;100.00;94023.69;5071481;28;20235;-62
2022/11/16 06:57:59;;;;;;;43.57;25.10;;;;;;;6.24;100.00;94027.31;5071634;28;20196;-61
2022/11/16 07:00:25;;;;;;;45.23;26.00;;;;;;;6.47;100.00;94044.00;5078673;22;20612;-59
2022/11/16 07:02:50;;;;;;;45.27;25.33;;;;;;;6.58;100.00;94031.34;5071595;28;20188;-60
2022/11/16 07:05:16;;;;;;;43.10;24.77;;;;;;;6.59;100.00;94025.34;5071216;28;20228;-61
2022/11/16 07:07:41;;;;;;;41.03;24.40;;;;;;;6.53;100.00;94019.97;5071419;28;20184;-61
2022/11/16 07:10:07;;;;;;;40.23;25.40;;;;;;;6.55;100.00;94034.09;5071682;28;20704;-59
2022/11/16 07:12:33;;;;;;;44.57;25.87;;;;;;;6.61;100.00;94020.97;5053192;28;20212;-61
2022/11/16 07:14:58;;;;;;;44.33;25.33;;;;;;;6.84;100.00;94044.41;5071388;28;20775;-63
2022/11/16 07:17:24;;;;;;;45.30;26.83;;;;;;;6.78;100.00;94030.56;5071031;28;20226;-62
2022/11/16 07:19:49;;;;;;;46.40;24.97;;;;;;;7.14;100.00;94076.50;5071030;28;20212;-61
2022/11/16 07:22:14;;;;;;;45.90;26.03;;;;;;;7.15;100.00;94068.03;5071159;28;20192;-62
2022/11/16 07:24:40;;;;;;;52.67;25.83;;;;;;;7.23;100.00;94065.69;5071148;28;20212;-61
2022/11/16 07:27:07;;;;;;;48.43;25.57;;;;;;;6.96;100.00;94025.75;5071180;28;20653;-60
2022/11/16 07:29:32;;;;;;;55.00;26.80;;;;;;;6.95;100.00;94013.25;5053069;28;20634;-61
2022/11/16 07:31:58;;;;;;;51.00;28.17;;;;;;;7.02;100.00;94032.03;5070968;28;20284;-60
2022/11/16 07:34:23;;;;;;;54.43;28.37;;;;;;;7.24;100.00;94049.56;5053604;28;20217;-60
2022/11/16 07:36:48;;;;;;;54.07;28.03;;;;;;;7.08;100.00;94029.81;5071201;28;20188;-61
2022/11/16 07:39:14;;;;;;;46.70;25.93;;;;;;;7.22;100.00;94028.69;5070660;28;20235;-62
2022/11/16 07:41:44;;;;;;;53.20;27.07;;;;;;;7.21;100.00;94025.34;5052821;28;20181;-62
2022/11/16 07:44:09;;;;;;;50.33;25.87;;;;;;;7.12;100.00;94000.03;5052973;28;21033;-62
2022/11/16 07:46:35;;;;;;;59.83;28.33;;;;;;;7.15;100.00;94008.16;5053021;28;20651;-62
2022/11/16 07:49:01;;;;;;;49.13;26.07;;;;;;;7.46;100.00;94042.63;5071008;28;20213;-60
2022/11/16 07:51:27;;;;;;;57.37;28.10;;;;;;;7.41;100.00;94027.03;5070943;28;20195;-62
2022/11/16 07:53:56;;;;;;;57.67;27.17;;;;;;;7.62;100.00;94037.09;5052773;28;20273;-62
2022/11/16 07:56:22;;;;;;;55.63;27.40;;;;;;;7.69;100.00;94027.28;5070273;28;20250;-61
2022/11/16 07:58:48;;;;;;;59.30;26.90;;;;;;;7.74;100.00;94015.06;5071007;28;20193;-63
2022/11/16 08:01:15;;;;;;;61.00;29.87;;;;;;;7.61;100.00;93990.78;5070896;28;20223;-64
2022/11/16 08:03:42;;;;;;;55.43;28.20;;;;;;;7.61;100.00;93987.47;5070732;28;20561;-59
2022/11/16 08:06:28;;;;;;;51.20;27.30;;;;;;;7.78;100.00;94003.75;5070531;28;20185;-60
2022/11/16 08:08:54;;;;;;;52.13;25.60;;;;;;;7.92;100.00;94003.41;5070643;28;20201;-60
2022/11/16 08:11:19;;;;;;;62.53;27.67;;;;;;;7.98;100.00;94011.25;5070537;28;20253;-61
2022/11/16 08:13:45;;;;;;;62.47;28.23;;;;;;;7.96;100.00;93995.38;5070478;28;20216;-63
2022/11/16 08:16:16;;;;;;;57.63;28.13;;;;;;;8.31;100.00;94031.19;5070552;28;20571;-59
2022/11/16 08:18:42;;;;;;;57.47;28.53;;;;;;;8.35;100.00;94016.53;5070548;28;20374;-58
2022/11/16 08:21:10;;;;;;;66.43;29.00;;;;;;;8.44;100.00;94019.06;5070351;28;20188;-59
2022/11/16 08:23:36;;;;;;;60.17;29.97;;;;;;;8.45;100.00;94022.41;5070744;28;20585;-62
2022/11/16 08:26:08;;;;;;;65.70;30.43;;;;;;;8.40;100.00;93994.94;5070077;28;20212;-63
2022/11/16 08:28:34;;;;;;;61.73;30.17;;;;;;;8.53;100.00;94019.19;5070436;28;20200;-61
2022/11/16 08:31:07;;;;;;;70.23;32.50;;;;;;;8.54;100.00;94003.88;5070036;28;20208;-59
2022/11/16 08:33:33;;;;;;;72.37;31.47;;;;;;;8.44;100.00;93987.88;5070131;28;20208;-63
2022/11/16 08:36:03;;;;;;;67.67;30.90;;;;;;;8.49;100.00;93995.88;5070134;28;20212;-60
2022/11/16 08:38:28;;;;;;;65.90;29.30;;;;;;;8.51;100.00;93980.53;5070169;28;20218;-60
2022/11/16 08:40:54;;;;;;;67.33;32.33;;;;;;;8.48;100.00;93988.41;5070013;28;20287;-60
2022/11/16 08:43:28;;;;;;;71.73;32.03;;;;;;;8.52;100.00;93990.56;5069963;28;20215;-62
2022/11/16 08:45:54;;;;;;;67.70;31.13;;;;;;;8.49;100.00;93973.06;5069865;28;20566;-60
2022/11/16 08:48:20;;;;;;;64.17;31.77;;;;;;;8.46;100.00;93966.53;5069784;28;20279;-61
2022/11/16 08:50:46;;;;;;;73.17;33.60;;;;;;;8.64;100.00;93996.28;5069901;28;20295;-61
2022/11/16 08:53:14;;;;;;;67.70;31.83;;;;;;;8.61;100.00;93981.31;5073340;28;20287;-60
2022/11/16 08:55:40;;;;;;;72.00;33.23;;;;;;;8.75;100.00;93993.59;5073288;28;20193;-61
2022/11/16 08:58:05;;;;;;;66.80;32.23;;;;;;;8.70;100.00;93985.59;5073462;28;20222;-61
2022/11/16 09:00:31;;;;;;;64.20;32.13;;;;;;;8.70;100.00;93978.81;5073499;28;20197;-61
2022/11/16 09:02:56;;;;;;;78.17;33.50;;;;;;;8.76;100.00;93985.06;5073300;28;20563;-61
2022/11/16 09:05:21;;;;;;;62.47;31.03;;;;;;;8.67;100.00;93975.72;5055370;28;20200;-62
2022/11/16 09:07:47;;;;;;;80.40;33.63;;;;;;;8.48;100.00;93952.00;5055008;28;20653;-61
2022/11/16 09:10:13;;;;;;;71.90;33.57;;;;;;;8.29;100.00;93925.91;5073012;28;20196;-61
2022/11/16 09:12:38;;;;;;;73.57;31.17;;;;;;;8.48;100.00;93934.28;5072936;28;20262;-61
2022/11/16 09:15:05;;;;;;;63.53;29.00;;;;;;;8.41;100.00;93935.78;5072964;28;20635;-61
2022/11/16 09:17:31;;;;;;;70.40;30.13;;;;;;;8.36;100.00;93917.63;5055063;28;20212;-60
2022/11/16 09:19:56;;;;;;;67.13;31.47;;;;;;;8.36;100.00;93917.63;5073181;28;20240;-60
2022/11/16 09:22:22;;;;;;;70.00;32.07;;;;;;;8.11;100.00;93913.09;5072875;28;20742;-61
2022/11/16 09:24:47;;;;;;;70.93;33.20;;;;;;;8.22;100.00;93900.28;5073176;28;20270;-60
2022/11/16 09:27:13;;;;;;;71.27;31.80;;;;;;;8.28;100.00;93902.31;5072788;28;20207;-60
2022/11/16 09:29:39;;;;;;;69.43;31.33;;;;;;;8.35;100.00;93900.06;5072945;28;20256;-61
2022/11/16 09:32:05;;;;;;;68.17;31.10;;;;;;;8.51;100.00;93902.81;5072546;28;20188;-60
2022/11/16 09:34:33;;;;;;;74.27;34.77;;;;;;;8.51;100.00;93890.16;5072743;28;20208;-60
2022/11/16 09:36:59;;;;;;;70.03;32.47;;;;;;;8.70;100.00;93905.34;5072737;28;20246;-61
2022/11/16 09:39:26;;;;;;;59.77;30.43;;;;;;;8.82;100.00;93899.16;5054884;28;20624;-59
2022/11/16 09:42:13;;;;;;;65.07;31.73;;;;;;;8.92;100.00;93886.47;5072460;28;20227;-59
2022/11/16 09:44:57;;;;;;;70.43;32.80;;;;;;;8.90;100.00;93880.72;5054719;28;20329;-59
2022/11/16 09:47:36;;;;;;;63.13;30.53;;;;;;;9.28;100.00;93903.38;5072558;28;20856;-60
2022/11/16 09:50:04;;;;;;;55.80;27.90;;;;;;;9.27;100.00;93894.97;5072820;28;20232;-62
2022/11/16 09:52:35;;;;;;;56.53;28.27;;;;;;;9.54;100.00;93917.00;5072241;28;20216;-60
2022/11/16 09:55:19;;;;;;;61.17;30.77;;;;;;;9.42;100.00;93909.72;5037853;28;20216;-60
2022/11/16 09:57:46;;;;;;;50.90;26.60;;;;;;;9.46;100.00;93901.69;5072544;28;20642;-62
2022/11/16 10:00:16;;;;;;;49.47;24.87;;;;;;;9.51;100.00;93896.22;5072403;28;20223;-60
2022/11/16 10:02:50;;;;;;;45.53;22.97;;;;;;;9.82;100.00;93923.66;5072346;28;20215;-60
2022/11/16 10:05:20;;;;;;;42.70;23.03;;;;;;;9.92;100.00;93919.31;5072348;28;20209;-59
2022/11/16 10:07:57;;;;;;;41.13;22.93;;;;;;;10.13;100.00;93932.56;5072559;28;20181;-63
2022/11/16 10:10:36;;;;;;;46.40;24.33;;;;;;;10.31;100.00;93939.38;5072337;28;20216;-62
2022/11/16 10:13:29;;;;;;;42.47;23.57;;;;;;;10.49;100.00;93940.97;5072345;28;20326;-61
2022/11/16 10:16:07;;;;;;;39.53;22.47;;;;;;;10.53;100.00;93911.78;5072295;28;20235;-59
2022/11/16 10:18:46;;;;;;;39.57;22.53;;;;;;;10.77;100.00;93916.22;5054464;28;20188;-61
2022/11/16 10:21:27;;;;;;;38.53;21.97;;;;;;;11.34;100.00;93953.75;5072275;28;20188;-62
2022/11/16 10:23:55;;;;;;;39.87;22.77;;;;;;;12.14;100.00;93991.47;5072282;28;20185;-63
2022/11/16 10:26:50;;;;;;;38.30;20.90;;;;;;;12.74;100.00;94045.63;5054335;28;20177;-62
2022/11/16 10:29:30;;;;;;;37.37;20.80;;;;;;;12.92;100.00;94045.47;5071921;28;20219;-62
2022/11/16 10:32:15;;;;;;;34.77;21.20;;;;;;;13.41;100.00;94047.88;5071976;28;20176;-61
2022/11/16 10:35:05;;;;;;;35.57;21.37;;;;;;;13.68;100.00;94072.25;5054035;28;20208;-62
2022/11/16 10:37:34;;;;;;;41.67;23.00;;;;;;;13.73;100.00;94071.75;5072149;28;20670;-60
2022/11/16 10:40:16;;;;;;;43.00;24.43;;;;;;;13.65;100.00;94053.91;5071883;28;20211;-61
2022/11/16 10:42:43;;;;;;;41.47;25.10;;;;;;;13.39;100.00;94029.34;5071932;28;20280;-61
2022/11/16 10:45:21;;;;;;;42.17;23.57;;;;;;;13.06;100.00;94022.69;5071668;28;20243;-60
2022/11/16 10:47:57;;;;;;;46.13;25.27;;;;;;;12.35;100.00;93945.19;5071705;28;20195;-60
2022/11/16 10:50:39;;;;;;;44.60;24.37;;;;;;;12.15;100.00;93908.22;5071716;28;20279;-60
2022/11/16 10:53:05;;;;;;;39.67;23.13;;;;;;;12.04;100.00;93883.06;5071672;28;20204;-59
2022/11/16 10:55:31;;;;;;;40.23;25.63;;;;;;;12.11;100.00;93886.53;5053752;28;20203;-60
2022/11/16 10:58:02;;;;;;;44.27;23.53;;;;;;;12.32;100.00;93902.19;5071488;28;20650;-59
2022/11/16 11:00:50;;;;;;;40.07;24.90;;;;;;;12.42;100.00;93906.16;5071611;28;20204;-60
2022/11/16 11:03:29;;;;;;;41.37;24.20;;;;;;;12.37;100.00;93905.03;5071682;28;20181;-59
2022/11/16 11:05:54;;;;;;;43.87;24.53;;;;;;;12.05;100.00;93852.31;5071357;28;20664;-59
2022/11/16 11:08:31;;;;;;;45.27;24.80;;;;;;;11.87;100.00;93823.66;5053339;28;20197;-63
2022/11/16 11:14:04;;;;;;;44.53;24.20;;;;;;;12.15;100.00;93847.88;5055370;28;20805;-59
2022/11/16 11:16:30;;;;;;;45.30;25.17;;;;;;;12.15;100.00;93824.13;5071121;28;20193;-64
2022/11/16 11:18:56;;;;;;;41.20;25.50;;;;;;;12.13;100.00;93816.66;5071586;28;20180;-61
2022/11/16 11:21:24;;;;;;;48.73;26.30;;;;;;;12.29;100.00;93833.69;5071339;28;20318;-62
2022/11/16 11:23:54;;;;;;;47.57;27.07;;;;;;;12.40;100.00;93830.81;5071424;28;20204;-61
2022/11/16 11:26:40;;;;;;;48.27;26.93;;;;;;;12.24;100.00;93821.41;5071024;28;20193;-60
2022/11/16 11:29:24;;;;;;;50.70;26.37;;;;;;;12.24;100.00;93825.75;5053060;28;20270;-59
2022/11/16 11:31:53;;;;;;;45.90;25.53;;;;;;;11.92;100.00;93770.47;5071005;28;20647;-59
2022/11/16 11:34:29;;;;;;;39.10;24.90;;;;;;;12.01;100.00;93761.09;5053020;28;20264;-60
2022/11/16 11:37:10;;;;;;;41.83;26.60;;;;;;;11.87;100.00;93731.19;5070871;28;20573;-62
2022/11/16 11:39:36;;;;;;;44.83;26.37;;;;;;;11.84;100.00;93726.41;5053058;28;20221;-61
2022/11/16 11:42:22;;;;;;;42.60;24.23;;;;;;;11.92;100.00;93739.16;5078032;22;20221;-60
2022/11/16 11:45:05;;;;;;;42.83;27.00;;;;;;;12.15;100.00;93771.44;5070331;28;20584;-62
2022/11/16 11:47:52;;;;;;;44.33;24.73;;;;;;;12.08;100.00;93750.09;5071036;28;20223;-60
2022/11/16 11:50:37;;;;;;;47.37;25.90;;;;;;;12.13;100.00;93742.78;5070626;28;20201;-61
2022/11/16 11:53:10;;;;;;;46.40;26.33;;;;;;;12.27;100.00;93754.06;5070652;28;20217;-61
2022/11/16 11:55:36;;;;;;;47.03;26.60;;;;;;;12.17;100.00;93750.88;5070768;28;20740;-59
2022/11/16 11:58:04;;;;;;;47.63;26.90;;;;;;;12.22;100.00;93746.88;5070596;28;20189;-64
2022/11/16 12:00:47;;;;;;;39.97;24.43;;;;;;;12.36;100.00;93760.75;5070547;28;20230;-63
2022/11/16 12:03:37;;;;;;;41.87;25.57;;;;;;;12.23;100.00;93740.03;5052658;28;20216;-63
2022/11/16 12:06:15;;;;;;;46.83;23.77;;;;;;;12.29;100.00;93736.84;5070628;28;20199;-62
2022/11/16 12:09:19;;;;;;;43.43;23.40;;;;;;;12.02;100.00;93729.59;5070296;28;20192;-65
2022/11/16 12:12:20;;;;;;;40.50;24.20;;;;;;;11.82;100.00;93692.69;5052007;28;20307;-59